createdAt,value
2022-08-23T00:00:29.629Z,22.41
2022-08-23T00:02:57.899Z,22.26
2022-08-23T00:05:25.639Z,22.15
2022-08-23T00:07:52.916Z,21.95
2022-08-23T00:10:20.907Z,22.26
2022-08-23T00:12:48.154Z,22.28
2022-08-23T00:15:17.035Z,22.36
2022-08-23T00:17:44.619Z,22.47
2022-08-23T00:20:13.229Z,22.28
2022-08-23T00:22:41.642Z,22.37
2022-08-23T00:25:10.937Z,21.91
2022-08-23T00:27:39.176Z,22.22
2022-08-23T00:30:07.678Z,22.13
2022-08-23T00:32:37.048Z,22.36
2022-08-23T00:35:05.338Z,22.32
2022-08-23T00:37:34.448Z,22.42
2022-08-23T00:40:05.516Z,22.27
2022-08-23T00:42:58.170Z,22.17
2022-08-23T00:45:46.937Z,22.22
2022-08-23T00:48:15.605Z,22.06
2022-08-23T00:50:51.409Z,22.02
2022-08-23T00:53:23.365Z,22.17
2022-08-23T00:55:51.803Z,21.90
2022-08-23T00:58:19.858Z,22.07
2022-08-23T01:00:47.949Z,22.22
2022-08-23T01:03:16.233Z,22.00
2022-08-23T01:05:58.389Z,22.01
2022-08-23T01:08:26.448Z,22.09
2022-08-23T01:10:59.030Z,21.80
2022-08-23T01:13:33.985Z,22.03
2022-08-23T01:16:10.830Z,22.36
2022-08-23T01:18:38.659Z,22.04
2022-08-23T01:21:24.598Z,22.01
2022-08-23T01:23:54.262Z,22.20
2022-08-23T01:26:22.990Z,22.14
2022-08-23T01:28:51.454Z,22.08
2022-08-23T01:31:19.901Z,22.27
2022-08-23T01:33:48.411Z,22.30
2022-08-23T01:36:16.103Z,22.29
2022-08-23T01:38:45.167Z,22.16
2022-08-23T01:41:13.017Z,22.19
2022-08-23T01:43:40.526Z,22.37
2022-08-23T01:46:10.128Z,22.41
2022-08-23T01:48:40.819Z,22.32
2022-08-23T01:51:09.246Z,22.36
2022-08-23T01:53:37.373Z,22.31
2022-08-23T01:56:04.977Z,22.34
2022-08-23T01:58:33.463Z,22.34
2022-08-23T02:01:04.562Z,22.35
2022-08-23T02:03:34.493Z,22.25
2022-08-23T02:06:01.859Z,22.23
2022-08-23T02:08:47.925Z,22.31
2022-08-23T02:11:17.886Z,22.26
2022-08-23T02:13:48.486Z,21.88
2022-08-23T02:16:27.179Z,22.14
2022-08-23T02:18:58.088Z,21.97
2022-08-23T02:21:26.525Z,22.06
2022-08-23T02:23:54.491Z,22.18
2022-08-23T02:26:30.840Z,22.27
2022-08-23T02:28:59.206Z,22.27
2022-08-23T02:31:27.189Z,22.31
2022-08-23T02:33:55.752Z,22.31
2022-08-23T02:36:24.927Z,22.07
2022-08-23T02:38:54.009Z,22.05
2022-08-23T02:41:21.605Z,22.20
2022-08-23T02:43:54.429Z,22.16
2022-08-23T02:46:25.312Z,22.17
2022-08-23T02:48:53.409Z,22.37
2022-08-23T02:51:22.594Z,22.41
2022-08-23T02:53:50.590Z,22.32
2022-08-23T02:56:21.895Z,22.30
2022-08-23T02:58:54.641Z,22.15
2022-08-23T03:01:24.662Z,22.35
2022-08-23T03:03:53.035Z,22.01
2022-08-23T03:06:24.783Z,22.21
2022-08-23T03:08:55.123Z,22.46
2022-08-23T03:11:25.208Z,22.32
2022-08-23T03:13:53.767Z,22.39
2022-08-23T03:16:25.510Z,22.28
2022-08-23T03:18:52.948Z,22.57
2022-08-23T03:21:21.310Z,22.61
2022-08-23T03:23:51.401Z,22.48
2022-08-23T03:26:19.686Z,22.56
2022-08-23T03:28:48.147Z,22.53
2022-08-23T03:31:16.406Z,22.63
2022-08-23T03:33:44.440Z,22.69
2022-08-23T03:36:12.230Z,22.49
2022-08-23T03:38:40.607Z,22.29
2022-08-23T03:41:08.769Z,22.42
2022-08-23T03:43:36.590Z,22.36
2022-08-23T03:46:04.963Z,22.42
2022-08-23T03:48:32.985Z,22.57
2022-08-23T03:51:00.743Z,22.64
2022-08-23T03:53:29.250Z,22.68
2022-08-23T03:55:57.649Z,22.57
2022-08-23T03:58:27.032Z,22.61
2022-08-23T04:00:55.319Z,22.60
2022-08-23T04:03:25.103Z,22.71
2022-08-23T04:05:53.725Z,22.71
2022-08-23T04:08:31.854Z,22.77
2022-08-23T04:11:03.409Z,22.51
2022-08-23T04:13:31.555Z,22.67
2022-08-23T04:16:03.000Z,22.59
2022-08-23T04:18:33.494Z,22.74
2022-08-23T04:21:07.295Z,22.74
2022-08-23T04:23:36.968Z,22.44
2022-08-23T04:26:06.565Z,22.59
2022-08-23T04:28:38.311Z,22.69
2022-08-23T04:31:05.848Z,22.67
2022-08-23T04:33:40.406Z,22.65
2022-08-23T04:36:10.457Z,22.57
2022-08-23T04:38:45.710Z,22.42
2022-08-23T04:41:32.705Z,22.36
2022-08-23T04:44:00.292Z,22.34
2022-08-23T04:46:28.763Z,21.82
2022-08-23T04:48:56.737Z,22.02
2022-08-23T04:51:24.377Z,22.14
2022-08-23T04:53:52.036Z,22.24
2022-08-23T04:56:23.394Z,22.03
2022-08-23T04:58:51.306Z,21.99
2022-08-23T05:01:21.432Z,22.20
2022-08-23T05:03:55.663Z,22.31
2022-08-23T05:06:25.013Z,22.55
2022-08-23T05:08:52.554Z,22.52
2022-08-23T05:11:20.754Z,22.59
2022-08-23T05:13:50.062Z,22.44
2022-08-23T05:16:21.351Z,22.07
2022-08-23T05:18:50.347Z,22.20
2022-08-23T05:21:19.669Z,22.20
2022-08-23T05:24:02.122Z,22.33
2022-08-23T05:26:33.742Z,22.46
2022-08-23T05:29:08.505Z,22.46
2022-08-23T05:31:36.738Z,22.53
2022-08-23T05:34:05.209Z,22.60
2022-08-23T05:36:32.993Z,22.67
2022-08-23T05:39:00.896Z,22.49
2022-08-23T05:41:38.447Z,22.62
2022-08-23T05:44:07.580Z,22.70
2022-08-23T05:46:36.878Z,22.50
2022-08-23T05:49:09.819Z,22.64
2022-08-23T05:51:40.290Z,22.65
2022-08-23T05:54:10.433Z,22.84
2022-08-23T05:56:43.035Z,22.89
2022-08-23T05:59:15.421Z,23.07
2022-08-23T06:01:44.535Z,22.93
2022-08-23T06:04:13.477Z,23.19
2022-08-23T06:06:42.596Z,23.14
2022-08-23T06:09:13.470Z,22.80
2022-08-23T06:11:43.330Z,22.96
2022-08-23T06:14:12.634Z,23.01
2022-08-23T06:16:42.683Z,22.75
2022-08-23T06:19:12.540Z,22.86
2022-08-23T06:21:45.860Z,22.52
2022-08-23T06:24:17.363Z,22.58
2022-08-23T06:26:47.611Z,22.80
2022-08-23T06:29:39.403Z,22.95
2022-08-23T06:32:37.507Z,23.37
2022-08-23T06:35:38.303Z,23.22
2022-08-23T06:38:03.964Z,23.03
2022-08-23T06:40:45.506Z,23.13
2022-08-23T06:43:14.379Z,23.20
2022-08-23T06:45:53.792Z,23.21
2022-08-23T06:48:36.349Z,23.21
2022-08-23T06:51:13.656Z,23.38
2022-08-23T06:53:46.030Z,23.27
2022-08-23T06:56:15.510Z,23.39
2022-08-23T06:58:44.074Z,23.21
2022-08-23T07:01:45.140Z,23.14
2022-08-23T07:04:18.715Z,23.45
2022-08-23T07:06:50.527Z,23.45
2022-08-23T07:09:19.165Z,23.12
2022-08-23T07:11:47.047Z,23.16
2022-08-23T07:14:20.517Z,23.43
2022-08-23T07:17:01.594Z,23.44
2022-08-23T07:19:34.849Z,23.54
2022-08-23T07:22:08.498Z,23.73
2022-08-23T07:24:39.075Z,23.55
2022-08-23T07:27:09.969Z,23.48
2022-08-23T07:29:39.811Z,23.87
2022-08-23T07:32:18.784Z,23.77
2022-08-23T07:34:55.611Z,24.05
2022-08-23T07:37:26.519Z,24.08
2022-08-23T07:40:01.580Z,24.04
2022-08-23T07:42:35.337Z,23.92
2022-08-23T07:45:04.166Z,23.75
2022-08-23T07:47:33.461Z,24.09
2022-08-23T07:50:01.415Z,24.11
2022-08-23T07:52:35.420Z,24.40
2022-08-23T07:55:05.626Z,24.28
2022-08-23T07:57:35.463Z,24.20
2022-08-23T08:00:05.940Z,23.81
2022-08-23T08:02:40.262Z,23.76
2022-08-23T08:05:10.433Z,24.17
2022-08-23T08:07:40.004Z,24.31
2022-08-23T08:10:09.945Z,24.10
2022-08-23T08:12:39.492Z,24.24
2022-08-23T08:15:16.465Z,24.34
2022-08-23T08:17:52.655Z,24.36
2022-08-23T08:20:31.437Z,24.19
2022-08-23T08:23:03.599Z,24.70
2022-08-23T08:25:34.683Z,25.15
2022-08-23T08:28:04.422Z,25.14
2022-08-23T08:30:32.367Z,25.23
2022-08-23T08:33:08.722Z,25.64
2022-08-23T08:35:40.995Z,25.06
2022-08-23T08:38:16.215Z,25.69
2022-08-23T08:40:46.943Z,26.15
2022-08-23T08:43:25.084Z,26.00
2022-08-23T08:45:59.425Z,26.63
2022-08-23T08:48:32.809Z,26.77
2022-08-23T08:51:10.526Z,26.28
2022-08-23T08:53:40.766Z,25.95
2022-08-23T08:56:25.351Z,26.15
2022-08-23T08:59:03.890Z,26.55
2022-08-23T09:01:33.361Z,26.57
2022-08-23T09:04:01.471Z,27.08
2022-08-23T09:06:47.955Z,26.75
2022-08-23T09:09:30.099Z,27.20
2022-08-23T09:12:22.678Z,27.00
2022-08-23T09:14:53.641Z,27.08
2022-08-23T09:17:23.473Z,27.24
2022-08-23T09:19:52.410Z,27.27
2022-08-23T09:22:30.953Z,27.38
2022-08-23T09:24:59.854Z,27.37
2022-08-23T09:27:36.665Z,27.09
2022-08-23T09:30:09.540Z,27.25
2022-08-23T09:35:20.549Z,26.99
2022-08-23T09:37:54.617Z,27.13
2022-08-23T09:40:39.000Z,27.45
2022-08-23T09:43:18.998Z,27.49
2022-08-23T09:45:51.639Z,27.11
2022-08-23T09:48:40.819Z,27.21
2022-08-23T09:51:20.504Z,27.14
2022-08-23T09:56:54.364Z,27.21
2022-08-23T09:59:27.608Z,27.22
2022-08-23T10:01:58.538Z,27.15
2022-08-23T10:04:32.921Z,27.44
2022-08-23T10:07:02.766Z,27.53
2022-08-23T10:09:36.579Z,27.59
2022-08-23T10:14:55.729Z,27.87
2022-08-23T10:17:31.155Z,28.26
2022-08-23T10:20:11.858Z,27.48
2022-08-23T10:22:48.911Z,27.15
2022-08-23T10:25:37.165Z,27.29
2022-08-23T10:28:39.367Z,27.26
2022-08-23T10:31:21.730Z,27.79
2022-08-23T10:33:59.734Z,27.78
2022-08-23T10:36:37.565Z,28.01
2022-08-23T10:39:12.269Z,28.21
2022-08-23T10:41:58.982Z,28.10
2022-08-23T10:44:38.459Z,28.05
2022-08-23T10:47:06.774Z,27.95
2022-08-23T10:49:36.337Z,27.68
2022-08-23T10:52:10.679Z,27.47
2022-08-23T10:55:02.637Z,27.27
2022-08-23T10:57:38.507Z,27.49
2022-08-23T11:00:09.786Z,27.50
2022-08-23T11:02:48.590Z,27.43
2022-08-23T11:05:28.937Z,27.46
2022-08-23T11:07:58.886Z,27.33
2022-08-23T11:10:39.714Z,27.27
2022-08-23T11:13:09.612Z,27.50
2022-08-23T11:15:46.876Z,27.72
2022-08-23T11:18:33.249Z,27.62
2022-08-23T11:21:07.987Z,27.90
2022-08-23T11:23:38.752Z,27.97
2022-08-23T11:26:08.216Z,28.02
2022-08-23T11:28:44.509Z,27.90
2022-08-23T11:31:17.689Z,27.60
2022-08-23T11:33:51.010Z,27.89
2022-08-23T11:36:31.614Z,27.55
2022-08-23T11:39:02.186Z,27.69
2022-08-23T11:41:37.576Z,27.63
2022-08-23T11:44:13.465Z,27.88
2022-08-23T11:46:51.159Z,27.77
2022-08-23T11:49:29.647Z,27.99
2022-08-23T11:52:19.007Z,27.82
2022-08-23T11:55:11.146Z,27.62
2022-08-23T11:57:59.914Z,27.90
2022-08-23T12:00:53.559Z,27.47
2022-08-23T12:03:27.593Z,27.46
2022-08-23T12:11:52.103Z,27.94
2022-08-23T12:14:31.534Z,28.07
2022-08-23T12:17:08.986Z,28.31
2022-08-23T12:19:46.656Z,28.65
2022-08-23T12:22:34.464Z,28.83
2022-08-23T12:25:09.702Z,28.73
2022-08-23T12:27:44.617Z,28.59
2022-08-23T12:30:39.786Z,29.18
2022-08-23T12:33:22.513Z,29.08
2022-08-23T12:35:57.655Z,29.14
2022-08-23T12:38:35.908Z,29.05
2022-08-23T12:41:26.454Z,28.50
2022-08-23T12:44:01.526Z,28.83
2022-08-23T12:46:41.592Z,28.73
2022-08-23T12:49:13.213Z,29.09
2022-08-23T12:51:49.524Z,28.84
2022-08-23T12:54:23.544Z,28.40
2022-08-23T12:56:53.137Z,27.97
2022-08-23T12:59:25.050Z,28.43
2022-08-23T13:01:53.853Z,28.36
2022-08-23T13:04:33.902Z,28.18
2022-08-23T13:07:10.634Z,28.30
2022-08-23T13:12:22.857Z,28.23
2022-08-23T13:14:51.602Z,27.65
2022-08-23T13:17:21.315Z,27.45
2022-08-23T13:19:50.330Z,27.75
2022-08-23T13:22:19.191Z,27.52
2022-08-23T13:27:56.669Z,27.64
2022-08-23T13:30:42.714Z,27.28
2022-08-23T13:33:14.998Z,27.47
2022-08-23T13:35:50.348Z,27.21
2022-08-23T13:38:24.817Z,27.29
2022-08-23T13:40:59.866Z,27.75
2022-08-23T13:43:34.414Z,27.69
2022-08-23T13:46:22.613Z,27.81
2022-08-23T13:49:01.833Z,27.95
2022-08-23T13:51:39.804Z,27.98
2022-08-23T13:54:11.679Z,28.52
2022-08-23T13:56:47.893Z,28.53
2022-08-23T13:59:21.669Z,28.50
2022-08-23T14:01:52.599Z,28.00
2022-08-23T14:04:23.590Z,28.28
2022-08-23T14:06:59.619Z,28.50
2022-08-23T14:09:29.741Z,28.20
2022-08-23T14:12:03.116Z,28.33
2022-08-23T14:14:43.582Z,28.60
2022-08-23T14:17:16.966Z,28.30
2022-08-23T14:20:32.804Z,28.32
2022-08-23T14:22:40.515Z,28.20
2022-08-23T14:25:18.869Z,28.10
2022-08-23T14:27:52.654Z,27.83
2022-08-23T14:30:29.451Z,27.80
2022-08-23T14:33:03.735Z,27.88
2022-08-23T14:35:33.539Z,28.21
2022-08-23T14:38:05.877Z,28.24
2022-08-23T14:40:44.561Z,27.90
2022-08-23T14:43:14.171Z,27.79
2022-08-23T14:45:49.800Z,27.81
2022-08-23T14:48:17.968Z,28.00
2022-08-23T14:50:47.199Z,28.04
2022-08-23T14:53:16.105Z,27.74
2022-08-23T14:55:44.224Z,27.74
2022-08-23T14:58:12.868Z,28.03
2022-08-23T15:00:42.040Z,27.76
2022-08-23T15:03:11.275Z,27.45
2022-08-23T15:05:43.116Z,27.31
2022-08-23T15:08:17.797Z,27.11
2022-08-23T15:11:33.179Z,27.71
2022-08-23T15:13:55.420Z,27.55
2022-08-23T15:16:30.030Z,27.47
2022-08-23T15:19:06.571Z,27.64
2022-08-23T15:21:36.055Z,27.59
2022-08-23T15:24:09.280Z,27.66
2022-08-23T15:26:41.835Z,27.54
2022-08-23T15:29:19.370Z,27.80
2022-08-23T15:31:56.073Z,27.65
2022-08-23T15:34:24.996Z,27.75
2022-08-23T15:36:57.745Z,27.30
2022-08-23T15:39:30.556Z,27.49
2022-08-23T15:42:00.780Z,27.36
2022-08-23T15:44:35.625Z,27.29
2022-08-23T15:47:07.851Z,27.19
2022-08-23T15:49:44.813Z,27.19
2022-08-23T15:52:23.735Z,27.24
2022-08-23T15:54:51.877Z,27.42
2022-08-23T15:57:21.947Z,27.45
2022-08-23T16:00:02.045Z,27.38
2022-08-23T16:03:06.566Z,27.18
2022-08-23T16:05:31.393Z,27.21
2022-08-23T16:07:59.777Z,27.45
2022-08-23T16:10:35.432Z,27.11
2022-08-23T16:13:10.777Z,27.33
2022-08-23T16:15:40.853Z,27.15
2022-08-23T16:18:15.524Z,27.17
2022-08-23T16:20:47.570Z,27.45
2022-08-23T16:26:01.422Z,27.26
2022-08-23T16:28:34.602Z,27.28
2022-08-23T16:33:51.638Z,27.39
2022-08-23T16:36:21.593Z,27.43
2022-08-23T16:38:51.050Z,27.03
2022-08-23T16:41:20.763Z,26.76
2022-08-23T16:43:51.226Z,26.97
2022-08-23T16:46:29.611Z,27.08
2022-08-23T16:49:11.572Z,26.65
2022-08-23T16:51:39.679Z,26.62
2022-08-23T16:54:10.965Z,26.44
2022-08-23T16:56:41.956Z,26.83
2022-08-23T16:59:15.953Z,26.52
2022-08-23T17:01:50.137Z,26.54
2022-08-23T17:04:26.654Z,26.70
2022-08-23T17:07:01.647Z,26.62
2022-08-23T17:09:36.010Z,26.38
2022-08-23T17:12:05.613Z,26.19
2022-08-23T17:14:37.895Z,26.42
2022-08-23T17:17:09.643Z,26.55
2022-08-23T17:19:38.315Z,26.16
2022-08-23T17:22:19.032Z,26.05
2022-08-23T17:29:54.749Z,26.11
2022-08-23T17:32:24.583Z,25.42
2022-08-23T17:34:54.064Z,25.92
2022-08-23T17:37:23.704Z,25.65
2022-08-23T17:39:53.336Z,25.66
2022-08-23T17:42:31.814Z,25.85
2022-08-23T17:45:09.636Z,25.79
2022-08-23T17:47:40.025Z,25.75
2022-08-23T17:50:19.686Z,25.73
2022-08-23T17:55:49.296Z,25.69
2022-08-23T17:58:29.642Z,25.17
2022-08-23T18:01:03.028Z,25.49
2022-08-23T18:03:42.579Z,25.28
2022-08-23T18:06:16.510Z,25.29
2022-08-23T18:08:59.046Z,25.38
2022-08-23T18:11:28.678Z,25.06
2022-08-23T18:14:04.572Z,24.81
2022-08-23T18:19:18.574Z,25.03
2022-08-23T18:21:47.037Z,25.00
2022-08-23T18:27:05.627Z,25.38
2022-08-23T18:29:40.574Z,24.87
2022-08-23T18:40:28.586Z,24.90
2022-08-23T18:43:09.183Z,24.99
2022-08-23T18:45:43.641Z,25.12
2022-08-23T18:48:29.567Z,25.05
2022-08-23T18:51:05.679Z,25.02
2022-08-23T18:53:48.157Z,24.58
2022-08-23T18:56:32.692Z,24.75
2022-08-23T18:59:06.523Z,24.98
2022-08-23T19:01:46.963Z,24.79
2022-08-23T19:04:25.235Z,24.63
2022-08-23T19:07:02.150Z,24.61
2022-08-23T19:09:50.637Z,24.60
2022-08-23T19:15:09.658Z,24.49
2022-08-23T19:17:48.740Z,24.64
2022-08-23T19:20:24.361Z,24.41
2022-08-23T19:23:00.788Z,24.20
2022-08-23T19:25:34.624Z,24.42
2022-08-23T19:28:05.288Z,24.51
2022-08-23T19:36:35.814Z,24.12
2022-08-23T19:39:12.580Z,24.24
2022-08-23T19:41:50.879Z,24.28
2022-08-23T19:44:21.635Z,24.09
2022-08-23T19:46:56.860Z,24.29
2022-08-23T19:49:25.004Z,24.06
2022-08-23T19:52:00.642Z,24.12
2022-08-23T19:54:29.585Z,24.26
2022-08-23T19:57:09.696Z,24.18
2022-08-23T19:59:50.624Z,24.24
2022-08-23T20:02:25.598Z,24.15
2022-08-23T20:04:56.964Z,24.08
2022-08-23T20:07:31.904Z,23.95
2022-08-23T20:10:10.016Z,23.96
2022-08-23T20:15:30.448Z,23.73
2022-08-23T20:18:04.662Z,23.96
2022-08-23T20:20:40.673Z,23.72
2022-08-23T20:23:37.161Z,23.72
2022-08-23T20:28:59.312Z,23.60
2022-08-23T20:34:12.561Z,23.52
2022-08-23T20:36:41.653Z,23.41
2022-08-23T20:39:12.692Z,23.38
2022-08-23T20:41:44.655Z,23.06
2022-08-23T20:49:22.839Z,23.48
2022-08-23T20:51:53.045Z,23.22
2022-08-23T20:54:20.901Z,23.16
2022-08-23T20:56:51.736Z,23.25
2022-08-23T20:59:20.051Z,23.27
2022-08-23T21:01:47.720Z,23.46
2022-08-23T21:04:15.432Z,23.27
2022-08-23T21:09:28.928Z,23.17
2022-08-23T21:11:57.621Z,23.28
2022-08-23T21:14:25.834Z,23.43
2022-08-23T21:16:53.951Z,23.14
2022-08-23T21:19:21.813Z,22.96
2022-08-23T21:21:49.720Z,23.21
2022-08-23T21:24:18.628Z,23.03
2022-08-23T21:26:47.137Z,22.79
2022-08-23T21:29:14.797Z,22.95
2022-08-23T21:31:42.520Z,23.09
2022-08-23T21:34:14.410Z,22.99
2022-08-23T21:36:51.643Z,23.29
2022-08-23T21:39:19.627Z,23.22
2022-08-23T21:41:48.416Z,23.18
2022-08-23T21:44:18.941Z,23.16
2022-08-23T21:46:47.801Z,23.12
2022-08-23T21:49:19.727Z,23.19
2022-08-23T21:51:53.217Z,23.31
2022-08-23T21:54:20.900Z,23.28
2022-08-23T21:56:49.360Z,22.88
2022-08-23T21:59:17.876Z,22.96
2022-08-23T22:01:47.911Z,22.81
2022-08-23T22:04:19.654Z,22.79
2022-08-23T22:06:49.596Z,22.61
2022-08-23T22:09:24.853Z,22.88
2022-08-23T22:11:55.998Z,22.88
2022-08-23T22:14:25.225Z,22.61
2022-08-23T22:16:59.087Z,22.93
2022-08-23T22:19:27.079Z,23.02
2022-08-23T22:21:55.597Z,22.83
2022-08-23T22:24:26.300Z,22.87
2022-08-23T22:26:54.803Z,22.81
2022-08-23T22:29:23.709Z,22.50
2022-08-23T22:31:51.408Z,22.57
2022-08-23T22:34:19.419Z,22.49
2022-08-23T22:36:51.925Z,22.56
2022-08-23T22:39:23.263Z,22.56
2022-08-23T22:41:51.866Z,22.66
2022-08-23T22:44:19.762Z,22.52
2022-08-23T22:46:47.718Z,22.64
2022-08-23T22:49:15.507Z,22.61
2022-08-23T22:51:43.667Z,22.43
2022-08-23T22:54:12.660Z,22.58
2022-08-23T22:56:44.822Z,22.18
2022-08-23T22:59:14.086Z,22.22
2022-08-23T23:01:45.203Z,22.28
2022-08-23T23:04:16.688Z,22.20
2022-08-23T23:06:45.070Z,22.31
2022-08-23T23:09:13.140Z,22.24
2022-08-23T23:11:42.256Z,22.00
2022-08-23T23:14:11.309Z,22.03
2022-08-23T23:16:38.806Z,22.60
2022-08-23T23:19:25.450Z,22.24
2022-08-23T23:21:54.701Z,22.34
2022-08-23T23:24:27.021Z,22.24
2022-08-23T23:26:55.252Z,22.12
2022-08-23T23:29:23.377Z,22.20
2022-08-23T23:31:50.848Z,22.27
2022-08-23T23:34:20.353Z,22.34
2022-08-23T23:36:48.384Z,22.43
2022-08-23T23:39:15.999Z,22.40
2022-08-23T23:41:44.568Z,22.21
2022-08-23T23:44:12.284Z,22.40
2022-08-23T23:46:43.401Z,22.40
2022-08-23T23:49:14.694Z,22.38
2022-08-23T23:51:42.571Z,22.33
2022-08-23T23:54:10.005Z,22.10
2022-08-23T23:56:42.908Z,22.20
2022-08-23T23:59:10.731Z,22.08
